Sumisemaru No.5 — JE3162 — position and weather

sailwx.info

Track history (hours):
 
Tides and Currents Weather Stations Pressure Air Temp Water Temp Dewpoint Dewpoint Depression Visibility Wind Speed Wind Dir Waves Ship Positions

Sumisemaru No.5

Last reported at 2017-Aug-02 09:41 UTC. Time now 2017-Aug-19 03:49 UTC.
Position N 34°55' E 139°46'.
Warning: this ship's position is 16 days out of date.

Length 96 m; draft 5.4 m.

Type: Cargo ship. MMSI: 431700423.

Date/timePositionNaut miles runAvg speedWind from/ knotsBaromVisibWave heightAir tempDewpointWater temp
2017-Aug-02 09:41N 34°55' E 139°46'212.7
2017-Aug-02 09:30N 34°57' E 139°44'612.3
2017-Aug-02 09:00N 35°02' E 139°43'714.1
2017-Aug-02 08:30N 35°09' E 139°45'713.1
2017-Aug-02 08:00N 35°16' E 139°46'611.8
2017-Aug-02 07:30N 35°21' E 139°42'611.6
2017-Aug-02 07:01N 35°25' E 139°47'5 8.4
2017-Aug-02 06:27N 35°22' E 139°51'0 0.0
2017-Aug-02 06:00N 35°22' E 139°51'0 0.0
2017-Aug-02 05:30N 35°22' E 139°51'0 0.0
2017-Aug-02 05:00N 35°22' E 139°51'0 0.0
2017-Aug-02 04:30N 35°22' E 139°51'0 0.0
2017-Aug-02 04:00N 35°22' E 139°51'0 0.0
2017-Aug-02 03:30N 35°22' E 139°51'0 0.0
2017-Aug-02 03:00N 35°22' E 139°51'0 0.0
2017-Aug-02 02:30N 35°22' E 139°51'0 0.0
2017-Aug-02 02:00N 35°22' E 139°51'  
2017-Jul-25 12:57N 34°53' E 139°46'614.2
2017-Jul-25 12:30N 34°58' E 139°43'713.0
2017-Jul-25 12:00N 35°05' E 139°44'612.7
2017-Jul-25 11:30N 35°11' E 139°46'612.3
2017-Jul-25 11:00N 35°17' E 139°45'612.4
2017-Jul-25 10:30N 35°23' E 139°42'3 5.4
2017-Jul-25 09:58N 35°26' E 139°41'0 0.0
2017-Jul-25 09:25N 35°26' E 139°41'0 0.0
2017-Jul-25 08:58N 35°26' E 139°41'0 0.0
2017-Jul-25 08:28N 35°26' E 139°41'0 0.0
2017-Jul-25 07:58N 35°26' E 139°41'0 0.0
2017-Jul-25 07:28N 35°26' E 139°41'0 0.0
2017-Jul-25 06:58N 35°26' E 139°41'0 0.0
2017-Jul-25 06:28N 35°26' E 139°41'0 0.0
2017-Jul-25 05:58N 35°26' E 139°41'0 0.0
2017-Jul-25 05:28N 35°26' E 139°41'0 0.0
2017-Jul-25 04:58N 35°26' E 139°41'0 0.0
2017-Jul-25 04:28N 35°26' E 139°41'0 0.0
2017-Jul-25 03:58N 35°26' E 139°41'0 0.0
2017-Jul-25 03:28N 35°26' E 139°41'0 0.0
2017-Jul-25 02:58N 35°26' E 139°41'0 0.0
2017-Jul-25 02:28N 35°26' E 139°41'0 0.0
2017-Jul-25 01:58N 35°26' E 139°41'0 0.0
2017-Jul-25 01:28N 35°26' E 139°41'0 0.0
2017-Jul-25 00:55N 35°26' E 139°41'0 0.0
2017-Jul-25 00:28N 35°26' E 139°41'0 0.0
2017-Jul-24 23:58N 35°26' E 139°41'0 0.0
2017-Jul-24 23:28N 35°26' E 139°41'0 0.0
2017-Jul-24 22:58N 35°26' E 139°41'0 0.0
2017-Jul-24 22:28N 35°26' E 139°41'1 1.7
2017-Jul-24 22:00N 35°25' E 139°42'0 0.1
2017-Jul-24 21:30N 35°25' E 139°42'0 0.0
2017-Jul-24 21:00N 35°25' E 139°42'0 0.0
2017-Jul-24 20:30N 35°25' E 139°42'0 0.0
2017-Jul-24 20:00N 35°25' E 139°42'0 0.0
2017-Jul-24 19:30N 35°25' E 139°42'0 0.0
2017-Jul-24 18:59N 35°25' E 139°42'0 0.0
2017-Jul-24 18:29N 35°25' E 139°42'0 0.0
2017-Jul-24 17:59N 35°25' E 139°42'0 0.0
2017-Jul-24 17:29N 35°25' E 139°42'0 0.1
2017-Jul-24 17:00N 35°25' E 139°42'4 8.8
2017-Jul-24 16:30N 35°21' E 139°43'613.0
2017-Jul-24 16:00N 35°15' E 139°47'24710.6
2017-Jul-23 16:44N 34°07' E 134°59'312.6
2017-Jul-23 16:29N 34°10' E 134°59'1012.7
2017-Jul-23 15:41N 34°20' E 134°59'411.7
2017-Jul-23 15:18N 34°25' E 135°01'412.0
2017-Jul-23 14:57N 34°29' E 135°01'512.0
2017-Jul-23 14:30N 34°34' E 135°03'4 8.6
2017-Jul-23 14:00N 34°37' E 134°59'510.8
2017-Jul-23 13:30N 34°37' E 134°52'  
Track history (hours):
 
Tides and Currents Weather Stations Pressure Air Temp Water Temp Dewpoint Dewpoint Depression Visibility Wind Speed Wind Dir Waves Ship Positions

Sumisemaru No.5

Last reported at 2017-Aug-02 09:41 UTC. Time now 2017-Aug-19 03:49 UTC.
Position N 34°55' E 139°46'.
Warning: this ship's position is 16 days out of date.

Length 96 m; draft 5.4 m.

Type: Cargo ship. MMSI: 431700423.

Date/timePositionNaut miles runAvg speedWind from/ knotsBaromVisibWave heightAir tempDewpointWater temp
2017-Aug-02 09:41N 34°55' E 139°46'212.7
2017-Aug-02 09:30N 34°57' E 139°44'612.3
2017-Aug-02 09:00N 35°02' E 139°43'714.1
2017-Aug-02 08:30N 35°09' E 139°45'713.1
2017-Aug-02 08:00N 35°16' E 139°46'611.8
2017-Aug-02 07:30N 35°21' E 139°42'611.6
2017-Aug-02 07:01N 35°25' E 139°47'5 8.4
2017-Aug-02 06:27N 35°22' E 139°51'0 0.0
2017-Aug-02 06:00N 35°22' E 139°51'0 0.0
2017-Aug-02 05:30N 35°22' E 139°51'0 0.0
2017-Aug-02 05:00N 35°22' E 139°51'0 0.0
2017-Aug-02 04:30N 35°22' E 139°51'0 0.0
2017-Aug-02 04:00N 35°22' E 139°51'0 0.0
2017-Aug-02 03:30N 35°22' E 139°51'0 0.0
2017-Aug-02 03:00N 35°22' E 139°51'0 0.0
2017-Aug-02 02:30N 35°22' E 139°51'0 0.0
2017-Aug-02 02:00N 35°22' E 139°51'  
2017-Jul-25 12:57N 34°53' E 139°46'614.2
2017-Jul-25 12:30N 34°58' E 139°43'713.0
2017-Jul-25 12:00N 35°05' E 139°44'612.7
2017-Jul-25 11:30N 35°11' E 139°46'612.3
2017-Jul-25 11:00N 35°17' E 139°45'612.4
2017-Jul-25 10:30N 35°23' E 139°42'3 5.4
2017-Jul-25 09:58N 35°26' E 139°41'0 0.0
2017-Jul-25 09:25N 35°26' E 139°41'0 0.0
2017-Jul-25 08:58N 35°26' E 139°41'0 0.0
2017-Jul-25 08:28N 35°26' E 139°41'0 0.0
2017-Jul-25 07:58N 35°26' E 139°41'0 0.0
2017-Jul-25 07:28N 35°26' E 139°41'0 0.0
2017-Jul-25 06:58N 35°26' E 139°41'0 0.0
2017-Jul-25 06:28N 35°26' E 139°41'0 0.0
2017-Jul-25 05:58N 35°26' E 139°41'0 0.0
2017-Jul-25 05:28N 35°26' E 139°41'0 0.0
2017-Jul-25 04:58N 35°26' E 139°41'0 0.0
2017-Jul-25 04:28N 35°26' E 139°41'0 0.0
2017-Jul-25 03:58N 35°26' E 139°41'0 0.0
2017-Jul-25 03:28N 35°26' E 139°41'0 0.0
2017-Jul-25 02:58N 35°26' E 139°41'0 0.0
2017-Jul-25 02:28N 35°26' E 139°41'0 0.0
2017-Jul-25 01:58N 35°26' E 139°41'0 0.0
2017-Jul-25 01:28N 35°26' E 139°41'0 0.0
2017-Jul-25 00:55N 35°26' E 139°41'0 0.0
2017-Jul-25 00:28N 35°26' E 139°41'0 0.0
2017-Jul-24 23:58N 35°26' E 139°41'0 0.0
2017-Jul-24 23:28N 35°26' E 139°41'0 0.0
2017-Jul-24 22:58N 35°26' E 139°41'0 0.0
2017-Jul-24 22:28N 35°26' E 139°41'1 1.7
2017-Jul-24 22:00N 35°25' E 139°42'0 0.1
2017-Jul-24 21:30N 35°25' E 139°42'0 0.0
2017-Jul-24 21:00N 35°25' E 139°42'0 0.0
2017-Jul-24 20:30N 35°25' E 139°42'0 0.0
2017-Jul-24 20:00N 35°25' E 139°42'0 0.0
2017-Jul-24 19:30N 35°25' E 139°42'0 0.0
2017-Jul-24 18:59N 35°25' E 139°42'0 0.0
2017-Jul-24 18:29N 35°25' E 139°42'0 0.0
2017-Jul-24 17:59N 35°25' E 139°42'0 0.0
2017-Jul-24 17:29N 35°25' E 139°42'0 0.1
2017-Jul-24 17:00N 35°25' E 139°42'4 8.8
2017-Jul-24 16:30N 35°21' E 139°43'613.0
2017-Jul-24 16:00N 35°15' E 139°47'24710.6
2017-Jul-23 16:44N 34°07' E 134°59'312.6
2017-Jul-23 16:29N 34°10' E 134°59'1012.7
2017-Jul-23 15:41N 34°20' E 134°59'411.7
2017-Jul-23 15:18N 34°25' E 135°01'412.0
2017-Jul-23 14:57N 34°29' E 135°01'512.0
2017-Jul-23 14:30N 34°34' E 135°03'4 8.6
2017-Jul-23 14:00N 34°37' E 134°59'510.8
2017-Jul-23 13:30N 34°37' E 134°52'  

Dump ship's entire track history